createdAt,value
2023-02-20T00:01:22.441Z,9.90
2023-02-20T00:03:57.334Z,10.00
2023-02-20T00:06:32.215Z,9.90
2023-02-20T00:09:07.129Z,9.90
2023-02-20T00:11:42.167Z,9.90
2023-02-20T00:14:17.195Z,9.80
2023-02-20T00:16:52.069Z,9.80
2023-02-20T00:19:26.915Z,9.80
2023-02-20T00:22:03.593Z,9.80
2023-02-20T00:24:38.436Z,9.90
2023-02-20T00:27:13.320Z,9.90
2023-02-20T00:29:48.192Z,9.90
2023-02-20T00:32:23.372Z,9.90
2023-02-20T00:34:58.271Z,9.80
2023-02-20T00:37:33.131Z,9.80
2023-02-20T00:40:08.952Z,9.70
2023-02-20T00:42:44.140Z,9.70
2023-02-20T00:45:19.622Z,9.70
2023-02-20T00:47:54.640Z,9.70
2023-02-20T00:50:29.477Z,9.70
2023-02-20T00:53:04.534Z,9.70
2023-02-20T00:55:39.399Z,9.70
2023-02-20T00:58:14.293Z,9.70
2023-02-20T01:00:49.194Z,9.70
2023-02-20T01:03:24.123Z,9.60
2023-02-20T01:05:59.126Z,9.60
2023-02-20T01:08:34.077Z,9.60
2023-02-20T01:11:11.747Z,9.60
2023-02-20T01:13:46.641Z,9.50
2023-02-20T01:16:21.621Z,9.40
2023-02-20T01:18:56.546Z,9.30
2023-02-20T01:21:32.286Z,9.30
2023-02-20T01:24:07.390Z,9.30
2023-02-20T01:26:47.111Z,9.30
2023-02-20T01:29:21.944Z,9.20
2023-02-20T01:31:56.942Z,9.20
2023-02-20T01:34:31.838Z,9.10
2023-02-20T01:37:06.944Z,9.10
2023-02-20T01:39:43.371Z,9.10
2023-02-20T01:42:23.437Z,9.10
2023-02-20T01:45:23.257Z,9.10
2023-02-20T01:47:58.551Z,9.00
2023-02-20T01:50:45.347Z,8.90
2023-02-20T01:53:24.024Z,8.90
2023-02-20T01:56:03.838Z,8.90
2023-02-20T01:58:46.108Z,8.80
2023-02-20T02:01:21.145Z,8.80
2023-02-20T02:04:05.053Z,8.80
2023-02-20T02:06:44.514Z,8.80
2023-02-20T02:09:49.426Z,8.80
2023-02-20T02:12:24.748Z,8.80
2023-02-20T02:14:59.849Z,8.80
2023-02-20T02:17:47.769Z,8.70
2023-02-20T02:20:50.148Z,8.70
2023-02-20T02:24:16.520Z,8.70
2023-02-20T02:28:15.090Z,8.60
2023-02-20T02:31:20.824Z,8.60
2023-02-20T02:34:32.170Z,8.60
2023-02-20T02:37:36.252Z,8.50
2023-02-20T02:40:47.644Z,8.60
2023-02-20T02:43:45.704Z,8.60
2023-02-20T02:46:34.986Z,8.60
2023-02-20T02:49:31.293Z,8.60
2023-02-20T02:52:07.825Z,8.70
2023-02-20T02:54:43.503Z,8.70
2023-02-20T02:57:28.332Z,8.70
2023-02-20T03:00:40.699Z,8.70
2023-02-20T03:03:35.194Z,8.70
2023-02-20T03:06:35.606Z,8.60
2023-02-20T03:09:25.666Z,8.60
2023-02-20T03:12:01.654Z,8.60
2023-02-20T03:15:27.143Z,8.50
2023-02-20T03:18:18.064Z,8.50
2023-02-20T03:20:59.159Z,8.40
2023-02-20T03:23:40.815Z,8.40
2023-02-20T03:26:22.414Z,8.40
2023-02-20T03:29:24.817Z,8.40
2023-02-20T03:32:29.036Z,8.50
2023-02-20T03:35:25.026Z,8.50
2023-02-20T03:38:23.262Z,8.60
2023-02-20T03:41:18.513Z,8.60
2023-02-20T03:43:55.022Z,8.60
2023-02-20T03:46:33.756Z,8.70
2023-02-20T03:49:19.085Z,8.70
2023-02-20T03:51:58.657Z,8.70
2023-02-20T03:54:46.017Z,8.60
2023-02-20T03:57:31.100Z,8.60
2023-02-20T04:00:22.040Z,8.60
2023-02-20T04:03:08.189Z,8.50
2023-02-20T04:05:52.647Z,8.50
2023-02-20T04:08:52.594Z,8.40
2023-02-20T04:11:50.116Z,8.40
2023-02-20T04:14:29.008Z,8.40
2023-02-20T04:17:13.795Z,8.40
2023-02-20T04:19:48.883Z,8.40
2023-02-20T04:22:32.791Z,8.30
2023-02-20T04:25:26.099Z,8.30
2023-02-20T04:28:02.278Z,8.30
2023-02-20T04:30:38.362Z,8.20
2023-02-20T04:33:15.533Z,8.20
2023-02-20T04:35:52.289Z,8.20
2023-02-20T04:38:27.743Z,8.20
2023-02-20T04:41:03.049Z,8.20
2023-02-20T04:43:38.297Z,8.20
2023-02-20T04:46:15.201Z,8.20
2023-02-20T04:48:50.379Z,8.10
2023-02-20T04:51:25.346Z,8.10
2023-02-20T04:54:00.573Z,8.10
2023-02-20T04:56:35.635Z,8.10
2023-02-20T04:59:12.473Z,8.10
2023-02-20T05:01:52.045Z,8.00
2023-02-20T05:04:27.069Z,8.00
2023-02-20T05:07:02.269Z,8.00
2023-02-20T05:09:37.285Z,7.90
2023-02-20T05:12:12.178Z,7.90
2023-02-20T05:14:47.411Z,7.90
2023-02-20T05:17:22.627Z,7.80
2023-02-20T05:19:57.560Z,7.90
2023-02-20T05:22:32.469Z,7.90
2023-02-20T05:25:08.370Z,7.80
2023-02-20T05:27:43.265Z,7.80
2023-02-20T05:30:18.269Z,7.80
2023-02-20T05:32:53.236Z,7.80
2023-02-20T05:35:28.147Z,7.80
2023-02-20T05:38:04.241Z,7.80
2023-02-20T05:40:39.140Z,7.80
2023-02-20T05:43:14.177Z,7.80
2023-02-20T05:45:49.295Z,7.70
2023-02-20T05:48:24.188Z,7.70
2023-02-20T05:50:59.082Z,7.70
2023-02-20T05:53:34.013Z,7.70
2023-02-20T05:56:08.881Z,7.70
2023-02-20T05:58:55.333Z,7.70
2023-02-20T06:01:32.326Z,7.60
2023-02-20T06:04:12.614Z,7.60
2023-02-20T06:06:47.574Z,7.60
2023-02-20T06:09:22.871Z,7.60
2023-02-20T06:11:58.079Z,7.60
2023-02-20T06:14:33.032Z,7.50
2023-02-20T06:17:08.357Z,7.50
2023-02-20T06:19:43.649Z,7.40
2023-02-20T06:22:23.941Z,7.50
2023-02-20T06:24:59.483Z,7.50
2023-02-20T06:27:39.683Z,7.40
2023-02-20T06:30:17.817Z,7.40
2023-02-20T06:32:56.140Z,7.50
2023-02-20T06:35:34.131Z,7.40
2023-02-20T06:38:24.683Z,7.40
2023-02-20T06:41:00.070Z,7.40
2023-02-20T06:43:37.968Z,7.40
2023-02-20T06:46:13.478Z,7.40
2023-02-20T06:48:54.672Z,7.40
2023-02-20T06:51:33.662Z,7.40
2023-02-20T06:54:11.523Z,7.30
2023-02-20T06:56:46.842Z,7.40
2023-02-20T06:59:22.514Z,7.40
2023-02-20T07:02:00.746Z,7.40
2023-02-20T07:04:38.850Z,7.40
2023-02-20T07:07:14.964Z,7.40
2023-02-20T07:09:55.855Z,7.40
2023-02-20T07:12:32.706Z,7.40
2023-02-20T07:15:10.291Z,7.40
2023-02-20T07:17:48.808Z,7.50
2023-02-20T07:20:31.419Z,7.50
2023-02-20T07:23:06.670Z,7.50
2023-02-20T07:25:41.773Z,7.50
2023-02-20T07:28:18.890Z,7.60
2023-02-20T07:30:54.894Z,7.60
2023-02-20T07:33:30.245Z,7.70
2023-02-20T07:36:08.715Z,7.70
2023-02-20T07:38:47.196Z,7.80
2023-02-20T07:41:34.818Z,7.80
2023-02-20T07:44:15.753Z,7.90
2023-02-20T07:46:50.794Z,7.90
2023-02-20T07:49:27.895Z,7.90
2023-02-20T07:52:05.537Z,8.00
2023-02-20T07:54:44.027Z,8.00
2023-02-20T07:57:19.190Z,8.00
2023-02-20T07:59:54.518Z,8.10
2023-02-20T08:02:32.376Z,8.10
2023-02-20T08:05:07.598Z,8.20
2023-02-20T08:07:47.884Z,8.20
2023-02-20T08:10:27.434Z,8.30
2023-02-20T08:13:04.376Z,8.40
2023-02-20T08:15:41.588Z,8.40
2023-02-20T08:18:23.820Z,8.50
2023-02-20T08:20:59.597Z,8.50
2023-02-20T08:23:35.119Z,8.50
2023-02-20T08:26:11.201Z,8.60
2023-02-20T08:28:48.466Z,8.60
2023-02-20T08:31:32.132Z,8.70
2023-02-20T08:34:08.382Z,8.70
2023-02-20T08:36:43.915Z,8.80
2023-02-20T08:39:18.943Z,8.80
2023-02-20T08:41:56.979Z,8.80
2023-02-20T08:44:35.939Z,8.80
2023-02-20T08:47:11.565Z,9.00
2023-02-20T08:49:48.703Z,9.10
2023-02-20T08:52:23.814Z,9.10
2023-02-20T08:55:02.246Z,9.20
2023-02-20T08:57:37.183Z,9.20
2023-02-20T09:00:14.942Z,9.20
2023-02-20T09:02:49.882Z,9.30
2023-02-20T09:05:26.822Z,9.40
2023-02-20T09:08:06.261Z,9.40
2023-02-20T09:10:41.194Z,9.40
2023-02-20T09:13:16.348Z,9.60
2023-02-20T09:15:51.208Z,9.70
2023-02-20T09:18:26.092Z,9.70
2023-02-20T09:21:01.044Z,9.80
2023-02-20T09:23:35.933Z,10.00
2023-02-20T09:26:11.502Z,10.20
2023-02-20T09:28:46.532Z,10.30
2023-02-20T09:31:21.504Z,10.40
2023-02-20T09:33:56.386Z,10.70
2023-02-20T09:36:31.340Z,10.80
2023-02-20T09:39:06.184Z,11.00
2023-02-20T09:41:40.944Z,11.00
2023-02-20T09:44:40.689Z,11.20
2023-02-20T09:47:55.748Z,11.60
2023-02-20T09:50:50.696Z,11.80
2023-02-20T09:53:41.132Z,11.60
2023-02-20T09:56:28.200Z,11.40
2023-02-20T09:59:39.546Z,11.30
2023-02-20T10:02:26.902Z,11.40
2023-02-20T10:05:20.582Z,11.40
2023-02-20T10:07:55.923Z,11.30
2023-02-20T10:10:38.891Z,11.20
2023-02-20T10:13:33.665Z,11.40
2023-02-20T10:16:23.481Z,11.40
2023-02-20T10:19:20.888Z,11.40
2023-02-20T10:22:16.658Z,11.40
2023-02-20T10:25:08.460Z,11.50
2023-02-20T10:28:03.414Z,11.40
2023-02-20T10:31:18.319Z,11.40
2023-02-20T10:34:10.108Z,11.30
2023-02-20T10:36:51.789Z,11.60
2023-02-20T10:39:28.490Z,11.80
2023-02-20T10:42:15.713Z,12.00
2023-02-20T10:44:53.829Z,11.90
2023-02-20T10:47:42.871Z,12.00
2023-02-20T10:50:24.118Z,12.10
2023-02-20T10:53:39.577Z,12.20
2023-02-20T10:56:33.897Z,12.40
2023-02-20T10:59:26.653Z,12.60
2023-02-20T11:02:08.639Z,12.80
2023-02-20T11:04:51.670Z,12.90
2023-02-20T11:07:26.622Z,12.90
2023-02-20T11:10:01.484Z,13.10
2023-02-20T11:12:51.630Z,13.20
2023-02-20T11:15:31.131Z,13.30
2023-02-20T11:18:26.085Z,13.40
2023-02-20T11:21:01.057Z,13.60
2023-02-20T11:23:44.018Z,13.80
2023-02-20T11:26:21.978Z,14.00
2023-02-20T11:29:18.470Z,14.00
2023-02-20T11:31:53.450Z,13.80
2023-02-20T11:34:31.637Z,13.90
2023-02-20T11:37:07.611Z,13.80
2023-02-20T11:39:48.771Z,14.00
2023-02-20T11:42:23.772Z,14.00
2023-02-20T11:45:29.176Z,14.10
2023-02-20T11:48:14.159Z,14.00
2023-02-20T11:50:53.577Z,14.40
2023-02-20T11:53:32.293Z,14.20
2023-02-20T11:56:18.060Z,14.10
2023-02-20T11:58:52.985Z,14.00
2023-02-20T12:01:35.712Z,14.00
2023-02-20T12:04:24.217Z,14.10
2023-02-20T12:06:59.123Z,14.50
2023-02-20T12:09:34.112Z,14.50
2023-02-20T12:12:13.893Z,14.60
2023-02-20T12:14:48.921Z,14.90
2023-02-20T12:17:32.816Z,15.30
2023-02-20T12:20:18.889Z,15.50
2023-02-20T12:23:37.586Z,15.70
2023-02-20T12:26:34.392Z,15.50
2023-02-20T12:29:28.457Z,15.70
2023-02-20T12:32:11.351Z,15.80
2023-02-20T12:35:00.689Z,16.10
2023-02-20T12:37:57.653Z,15.90
2023-02-20T12:41:03.145Z,16.00
2023-02-20T12:44:24.227Z,16.20
2023-02-20T12:47:27.983Z,16.40
2023-02-20T12:51:04.376Z,16.20
2023-02-20T12:54:00.538Z,16.40
2023-02-20T12:57:01.263Z,16.80
2023-02-20T12:59:58.933Z,17.00
2023-02-20T13:02:47.152Z,17.00
2023-02-20T13:05:25.127Z,16.80
2023-02-20T13:08:27.298Z,16.60
2023-02-20T13:11:14.574Z,16.60
2023-02-20T13:14:06.684Z,16.70
2023-02-20T13:16:55.165Z,17.00
2023-02-20T13:20:02.195Z,17.30
2023-02-20T13:22:37.106Z,17.60
2023-02-20T13:25:45.998Z,18.00
2023-02-20T13:28:20.744Z,18.10
2023-02-20T13:31:10.283Z,18.00
2023-02-20T13:33:49.096Z,18.00
2023-02-20T13:36:30.089Z,17.90
2023-02-20T13:39:23.266Z,17.90
2023-02-20T13:42:02.402Z,18.40
2023-02-20T13:44:44.209Z,18.80
2023-02-20T13:47:29.140Z,18.60
2023-02-20T13:50:29.419Z,18.40
2023-02-20T13:53:06.099Z,18.40
2023-02-20T13:55:43.475Z,18.60
2023-02-20T13:58:18.349Z,18.80
2023-02-20T14:00:55.145Z,18.90
2023-02-20T14:03:34.410Z,19.00
2023-02-20T14:06:21.890Z,18.90
2023-02-20T14:09:10.748Z,18.90
2023-02-20T14:11:45.748Z,18.60
2023-02-20T14:14:36.224Z,18.30
2023-02-20T14:17:22.175Z,18.40
2023-02-20T14:20:13.488Z,18.50
2023-02-20T14:22:50.525Z,18.50
2023-02-20T14:25:29.462Z,18.60
2023-02-20T14:28:14.425Z,18.70
2023-02-20T14:31:28.015Z,18.50
2023-02-20T14:34:11.639Z,18.30
2023-02-20T14:37:07.686Z,18.40
2023-02-20T14:40:03.246Z,18.30
2023-02-20T14:42:43.889Z,18.30
2023-02-20T14:45:26.657Z,18.40
2023-02-20T14:48:01.951Z,18.60
2023-02-20T14:50:37.306Z,18.90
2023-02-20T14:53:20.813Z,19.00
2023-02-20T14:55:55.768Z,18.90
2023-02-20T14:58:38.549Z,18.80
2023-02-20T15:01:37.645Z,18.50
2023-02-20T15:04:16.314Z,18.70
2023-02-20T15:06:53.744Z,18.80
2023-02-20T15:09:42.529Z,18.40
2023-02-20T15:12:35.093Z,18.30
2023-02-20T15:15:13.835Z,18.50
2023-02-20T15:17:48.713Z,18.70
2023-02-20T15:20:32.519Z,18.80
2023-02-20T15:23:16.397Z,18.60
2023-02-20T15:25:51.333Z,18.50
2023-02-20T15:28:29.429Z,18.50
2023-02-20T15:31:10.095Z,18.40
2023-02-20T15:33:53.433Z,18.50
2023-02-20T15:36:28.374Z,18.40
2023-02-20T15:39:03.377Z,18.30
2023-02-20T15:41:38.650Z,18.30
2023-02-20T15:44:13.508Z,18.20
2023-02-20T15:46:48.331Z,18.00
2023-02-20T15:49:23.320Z,17.80
2023-02-20T15:52:07.884Z,17.70
2023-02-20T15:54:52.528Z,17.60
2023-02-20T15:57:28.049Z,17.60
2023-02-20T16:00:04.712Z,17.50
2023-02-20T16:02:39.968Z,17.40
2023-02-20T16:05:15.359Z,17.30
2023-02-20T16:07:50.471Z,17.10
2023-02-20T16:10:25.825Z,17.00
2023-02-20T16:13:01.851Z,16.80
2023-02-20T16:15:36.849Z,16.50
2023-02-20T16:18:11.725Z,16.30
2023-02-20T16:20:46.809Z,16.10
2023-02-20T16:23:21.654Z,16.00
2023-02-20T16:25:57.572Z,15.90
2023-02-20T16:28:32.471Z,15.80
2023-02-20T16:31:07.428Z,15.70
2023-02-20T16:33:42.333Z,15.70
2023-02-20T16:36:24.711Z,15.60
2023-02-20T16:39:00.029Z,15.50
2023-02-20T16:41:35.636Z,15.40
2023-02-20T16:44:29.881Z,15.40
2023-02-20T16:47:05.542Z,15.30
2023-02-20T16:49:41.203Z,15.20
2023-02-20T16:52:29.471Z,15.20
2023-02-20T16:55:19.901Z,15.10
2023-02-20T16:57:56.020Z,15.00
2023-02-20T17:00:36.975Z,15.00
2023-02-20T17:03:13.291Z,14.90
2023-02-20T17:05:48.306Z,14.90
2023-02-20T17:08:23.185Z,14.80
2023-02-20T17:10:58.043Z,14.70
2023-02-20T17:13:32.863Z,14.60
2023-02-20T17:16:07.914Z,14.50
2023-02-20T17:18:42.874Z,14.50
2023-02-20T17:21:17.745Z,14.30
2023-02-20T17:23:52.690Z,14.30
2023-02-20T17:26:28.393Z,14.20
2023-02-20T17:29:03.455Z,14.10
2023-02-20T17:31:40.415Z,14.00
2023-02-20T17:34:15.435Z,13.80
2023-02-20T17:36:50.303Z,13.70
2023-02-20T17:39:25.689Z,13.70
2023-02-20T17:42:00.641Z,13.60
2023-02-20T17:44:38.213Z,13.50
2023-02-20T17:47:13.103Z,13.40
2023-02-20T17:49:52.631Z,13.40
2023-02-20T17:52:27.631Z,13.30
2023-02-20T17:55:02.478Z,13.20
2023-02-20T17:57:39.289Z,13.10
2023-02-20T18:00:16.381Z,13.00
2023-02-20T18:02:51.338Z,13.00
2023-02-20T18:05:26.239Z,12.90
2023-02-20T18:08:01.108Z,12.80
2023-02-20T18:10:35.931Z,12.80
2023-02-20T18:13:10.772Z,12.70
2023-02-20T18:15:45.687Z,12.60
2023-02-20T18:18:22.125Z,12.50
2023-02-20T18:20:57.035Z,12.50
2023-02-20T18:23:31.937Z,12.40
2023-02-20T18:26:06.769Z,12.30
2023-02-20T18:28:42.038Z,12.20
2023-02-20T18:31:18.206Z,12.10
2023-02-20T18:33:55.221Z,12.00
2023-02-20T18:36:30.127Z,11.90
2023-02-20T18:39:05.702Z,11.80
2023-02-20T18:41:41.416Z,11.80
2023-02-20T18:44:16.447Z,11.70
2023-02-20T18:46:51.906Z,11.60
2023-02-20T18:49:26.877Z,11.60
2023-02-20T18:52:03.642Z,11.50
2023-02-20T18:54:38.581Z,11.50
2023-02-20T18:57:13.438Z,11.40
2023-02-20T18:59:48.330Z,11.30
2023-02-20T19:02:23.285Z,11.30
2023-02-20T19:04:58.725Z,11.20
2023-02-20T19:07:33.590Z,11.10
2023-02-20T19:10:11.583Z,11.00
2023-02-20T19:12:46.434Z,11.00
2023-02-20T19:15:24.967Z,10.90
2023-02-20T19:17:59.971Z,10.90
2023-02-20T19:20:35.385Z,10.80
2023-02-20T19:23:10.259Z,10.70
2023-02-20T19:25:45.118Z,10.60
2023-02-20T19:28:20.097Z,10.50
2023-02-20T19:30:57.339Z,10.50
2023-02-20T19:33:32.301Z,10.40
2023-02-20T19:36:10.218Z,10.30
2023-02-20T19:38:45.646Z,10.30
2023-02-20T19:41:27.295Z,10.20
2023-02-20T19:44:02.400Z,10.10
2023-02-20T19:46:39.005Z,10.10
2023-02-20T19:49:13.923Z,10.00
2023-02-20T19:51:52.000Z,10.00
2023-02-20T19:54:40.713Z,9.80
2023-02-20T19:57:18.579Z,9.80
2023-02-20T19:59:53.756Z,9.70
2023-02-20T20:02:28.849Z,9.70
2023-02-20T20:05:04.137Z,9.60
2023-02-20T20:07:39.689Z,9.50
2023-02-20T20:10:18.032Z,9.50
2023-02-20T20:12:53.534Z,9.40
2023-02-20T20:15:29.504Z,9.40
2023-02-20T20:18:05.248Z,9.40
2023-02-20T20:20:40.183Z,9.30
2023-02-20T20:23:15.519Z,9.30
2023-02-20T20:25:50.442Z,9.20
2023-02-20T20:28:25.349Z,9.20
2023-02-20T20:31:00.324Z,9.10
2023-02-20T20:33:35.219Z,9.00
2023-02-20T20:36:10.292Z,9.00
2023-02-20T20:38:45.383Z,8.90
2023-02-20T20:41:20.218Z,8.90
2023-02-20T20:43:56.079Z,8.80
2023-02-20T20:46:32.011Z,8.80
2023-02-20T20:49:07.274Z,8.70
2023-02-20T20:51:43.199Z,8.60
2023-02-20T20:54:18.124Z,8.60
2023-02-20T20:56:52.993Z,8.60
2023-02-20T20:59:27.865Z,8.50
2023-02-20T21:02:02.706Z,8.50
2023-02-20T21:04:37.719Z,8.40
2023-02-20T21:07:13.418Z,8.30
2023-02-20T21:09:48.301Z,8.30
2023-02-20T21:12:23.352Z,8.30
2023-02-20T21:14:58.418Z,8.20
2023-02-20T21:17:33.836Z,8.20
2023-02-20T21:20:15.976Z,8.10
2023-02-20T21:22:51.245Z,8.10
2023-02-20T21:25:26.792Z,8.00
2023-02-20T21:28:02.478Z,7.90
2023-02-20T21:30:37.397Z,7.90
2023-02-20T21:33:12.328Z,7.80
2023-02-20T21:35:47.240Z,7.80
2023-02-20T21:38:22.264Z,7.80
2023-02-20T21:40:57.260Z,7.70
2023-02-20T21:43:50.594Z,7.70
2023-02-20T21:46:25.483Z,7.70
2023-02-20T21:49:00.442Z,7.60
2023-02-20T21:51:35.371Z,7.50
2023-02-20T21:54:10.433Z,7.50
2023-02-20T21:56:45.866Z,7.50
2023-02-20T21:59:21.147Z,7.40
2023-02-20T22:01:56.274Z,7.40
2023-02-20T22:04:31.645Z,7.30
2023-02-20T22:07:24.942Z,7.30
2023-02-20T22:10:18.539Z,7.20
2023-02-20T22:13:12.764Z,7.20
2023-02-20T22:16:06.313Z,7.10
2023-02-20T22:18:59.536Z,7.10
2023-02-20T22:21:53.061Z,7.00
2023-02-20T22:24:46.605Z,7.00
2023-02-20T22:27:40.086Z,6.90
2023-02-20T22:30:34.117Z,6.90
2023-02-20T22:33:27.616Z,6.80
2023-02-20T22:36:21.069Z,6.80
2023-02-20T22:39:15.086Z,6.80
2023-02-20T22:42:09.042Z,6.70
2023-02-20T22:45:02.714Z,6.70
2023-02-20T22:47:56.032Z,6.70
2023-02-20T22:50:49.484Z,6.60
2023-02-20T22:53:43.370Z,6.60
2023-02-20T22:56:38.608Z,6.50
2023-02-20T22:59:31.740Z,6.50
2023-02-20T23:02:25.245Z,6.40
2023-02-20T23:05:18.794Z,6.40
2023-02-20T23:08:12.322Z,6.40
2023-02-20T23:11:05.840Z,6.30
2023-02-20T23:13:59.261Z,6.30
2023-02-20T23:16:52.753Z,6.30
2023-02-20T23:19:46.216Z,6.30
2023-02-20T23:22:39.896Z,6.30
2023-02-20T23:25:33.369Z,6.20
2023-02-20T23:28:36.731Z,6.20
2023-02-20T23:31:31.276Z,6.20
2023-02-20T23:34:24.706Z,6.20
2023-02-20T23:37:17.797Z,6.10
2023-02-20T23:40:11.254Z,6.10
2023-02-20T23:43:04.802Z,6.10
2023-02-20T23:45:58.254Z,6.00
2023-02-20T23:48:52.145Z,6.00
2023-02-20T23:51:45.382Z,5.90
2023-02-20T23:54:39.393Z,5.90
2023-02-20T23:57:32.593Z,5.90
